Denver, Colorado
Traffic Map
Current Weather Conditions
Denver, Colorado
Scattered Clouds
Scattered Clouds
48°
Feels Like: 48°
Wind Chill: 48° Ceiling: Unl
Heat Index: 48° Visibility: 30mi
Dew Point: 43° Wind: 0mph
Humidity: 82% Direction: ° ()
Pressure: 30.05in Gusts: 0mph
Raw Report DataKBJC 280347Z 00000KT 30SM SCT100 SCT200 09/06 A3005
Traffic Incident Summary
Active as of:
Severity:
Category:
InformationThere was an issue retrieving the traffic information for this location. Please try a different location or try again shortly.
Advertisements
Track Severe Weather on mobile